Time;durP1;ratioP1;P1;durP2;ratioP2;P2;SDS_P1;SDS_P2;PMS_P1;PMS_P2;Temp;Humidity;BMP_temperature;BMP_pressure;BME280_temperature;BME280_humidity;BME280_pressure;Samples;Min_cycle;Max_cycle;Signal;HPM_P1;HPM_P2
2021/09/22 00:01:54;;;;;;;11.40;9.13;;;;;;;;;;4955559;29;20451;-92
2021/09/22 00:04:21;;;;;;;10.80;8.30;;;;;;;;;;4956136;29;20792;-91
2021/09/22 00:06:49;;;;;;;10.67;8.20;;;7.30;99.90;;;;;;4955724;29;20459;-91
2021/09/22 00:09:16;;;;;;;10.33;8.50;;;;;;;;;;4952120;29;20794;-91
2021/09/22 00:11:43;;;;;;;14.10;9.63;;;;;;;;;;4952994;29;20446;-92
2021/09/22 00:14:11;;;;;;;10.30;8.07;;;;;;;;;;4955803;29;20475;-91
2021/09/22 00:16:38;;;;;;;10.47;8.40;;;;;;;;;;4955271;29;20496;-91
2021/09/22 00:19:05;;;;;;;10.57;9.03;;;;;;;;;;4955810;29;20447;-91
2021/09/22 00:21:32;;;;;;;10.80;8.40;;;;;;;;;;4955438;29;20443;-90
2021/09/22 00:24:01;;;;;;;9.53;8.47;;;;;;;;;;4955747;29;20577;-91
2021/09/22 00:26:28;;;;;;;12.50;9.57;;;;;;;;;;4955530;29;20471;-92
2021/09/22 00:28:55;;;;;;;11.20;9.20;;;;;;;;;;4952186;29;20482;-92
2021/09/22 00:31:22;;;;;;;14.17;10.07;;;;;;;;;;4954626;29;20459;-90
2021/09/22 00:33:50;;;;;;;9.73;8.40;;;;;;;;;;4952708;29;20455;-92
2021/09/22 00:36:17;;;;;;;11.87;9.97;;;;;;;;;;4955424;29;20498;-91
2021/09/22 00:38:44;;;;;;;12.83;9.57;;;;;;;;;;4955664;29;20455;-90
2021/09/22 00:41:12;;;;;;;11.70;9.63;;;7.30;99.90;;;;;;4955733;29;20857;-91
2021/09/22 00:43:40;;;;;;;14.50;10.07;;;;;;;;;;4955563;29;20455;-91
2021/09/22 00:46:07;;;;;;;12.80;9.90;;;;;;;;;;4955343;29;20443;-91
2021/09/22 00:48:35;;;;;;;11.07;9.07;;;7.10;99.90;;;;;;4955391;29;20788;-91
2021/09/22 00:51:04;;;;;;;10.30;8.83;;;7.10;99.90;;;;;;4955536;29;20490;-91
2021/09/22 00:53:32;;;;;;;11.63;9.20;;;;;;;;;;4955700;29;20839;-92
2021/09/22 00:55:59;;;;;;;10.50;8.77;;;;;;;;;;4955556;29;20451;-92
2021/09/22 00:58:28;;;;;;;9.83;8.80;;;7.10;99.90;;;;;;4955549;29;20486;-92
2021/09/22 01:00:55;;;;;;;10.80;9.57;;;;;;;;;;4951790;29;20455;-89
2021/09/22 01:03:22;;;;;;;9.90;8.77;;;;;;;;;;4954942;29;20435;-91
2021/09/22 01:05:50;;;;;;;11.30;9.50;;;;;;;;;;4955521;29;20552;-92
2021/09/22 01:08:18;;;;;;;10.63;9.03;;;;;;;;;;4952728;28;20439;-90
2021/09/22 01:10:45;;;;;;;12.77;9.10;;;7.00;99.90;;;;;;4955819;29;20459;-91
2021/09/22 01:13:13;;;;;;;10.03;8.27;;;;;;;;;;4954598;29;20564;-91
2021/09/22 01:15:43;;;;;;;13.77;8.97;;;6.90;99.90;;;;;;4958727;29;20455;-91
2021/09/22 01:18:15;;;;;;;12.80;10.27;;;6.90;99.90;;;;;;4958600;29;20498;-91
2021/09/22 01:20:44;;;;;;;17.03;9.90;;;6.90;99.90;;;;;;4966507;29;20478;-90
2021/09/22 01:23:12;;;;;;;11.03;9.37;;;6.90;99.90;;;;;;4961987;29;20801;-93
2021/09/22 01:25:41;;;;;;;10.90;9.17;;;6.90;99.90;;;;;;4959395;29;20439;-91
2021/09/22 01:28:09;;;;;;;12.97;9.13;;;;;;;;;;4955178;29;20482;-90
2021/09/22 01:30:36;;;;;;;12.50;10.80;;;;;;;;;;4959116;29;20443;-91
2021/09/22 01:33:06;;;;;;;12.90;10.07;;;6.80;99.90;;;;;;4955500;29;20454;-90
2021/09/22 01:35:35;;;;;;;14.83;10.97;;;6.80;99.90;;;;;;4959221;29;20446;-91
2021/09/22 01:38:02;;;;;;;13.17;9.90;;;;;;;;;;4955928;29;20494;-91
2021/09/22 01:40:30;;;;;;;17.00;10.70;;;6.80;99.90;;;;;;4958760;29;20435;-92
2021/09/22 01:42:57;;;;;;;11.50;9.60;;;;;;;;;;4959077;29;20446;-92
2021/09/22 01:45:25;;;;;;;11.90;9.77;;;;;;;;;;4959027;29;20451;-92
2021/09/22 01:47:52;;;;;;;13.33;9.87;;;;;;;;;;4957810;29;20785;-90
2021/09/22 01:50:21;;;;;;;15.77;10.47;;;6.70;99.90;;;;;;4955885;29;20431;-91
2021/09/22 01:52:50;;;;;;;11.27;9.30;;;6.80;99.90;;;;;;4955749;29;20478;-91
2021/09/22 01:55:18;;;;;;;14.53;10.10;;;;;;;;;;4959059;29;20447;-91
2021/09/22 01:57:46;;;;;;;13.13;9.90;;;6.70;99.90;;;;;;4955690;29;20479;-91
2021/09/22 02:00:14;;;;;;;15.77;10.80;;;;;;;;;;4959569;29;20436;-92
2021/09/22 02:02:41;;;;;;;15.90;10.87;;;;;;;;;;4958854;29;20454;-89
2021/09/22 02:05:09;;;;;;;12.23;9.93;;;6.70;99.90;;;;;;4959976;29;20443;-91
2021/09/22 02:07:36;;;;;;;14.80;10.27;;;;;;;;;;4956757;29;20435;-91
2021/09/22 02:10:05;;;;;;;12.03;9.50;;;6.60;99.90;;;;;;4956624;29;20855;-91
2021/09/22 02:12:32;;;;;;;14.50;11.80;;;;;;;;;;4959077;29;20450;-91
2021/09/22 02:15:00;;;;;;;15.03;10.47;;;6.60;99.90;;;;;;4954911;29;20455;-91
2021/09/22 02:17:27;;;;;;;13.53;10.17;;;;;;;;;;4949690;29;20489;-91
2021/09/22 02:19:54;;;;;;;13.00;9.67;;;;;;;;;;4957618;28;20854;-91
2021/09/22 02:22:21;;;;;;;13.40;11.17;;;;;;;;;;4958255;29;20431;-91
2021/09/22 02:24:49;;;;;;;12.67;10.70;;;;;;;;;;4955459;29;20443;-92
2021/09/22 02:27:18;;;;;;;14.10;10.73;;;6.60;99.90;;;;;;4957671;29;20454;-91
2021/09/22 02:29:46;;;;;;;13.57;10.43;;;6.60;99.90;;;;;;4954857;29;20466;-90
2021/09/22 02:32:15;;;;;;;15.70;10.87;;;6.60;99.90;;;;;;4957151;29;20772;-92
2021/09/22 02:34:43;;;;;;;13.07;10.50;;;;;;;;;;4954850;29;20447;-91
2021/09/22 02:37:10;;;;;;;15.60;11.60;;;;;;;;;;4954763;29;20506;-91
2021/09/22 02:39:37;;;;;;;13.63;10.20;;;;;;;;;;4958029;29;20470;-91
2021/09/22 02:42:04;;;;;;;14.30;10.53;;;;;;;;;;4954573;29;20435;-91
2021/09/22 02:44:32;;;;;;;13.60;10.93;;;;;;;;;;4957439;29;20927;-91
2021/09/22 02:46:59;;;;;;;14.57;10.50;;;;;;;;;;4957233;29;20899;-91
2021/09/22 02:49:28;;;;;;;13.77;10.17;;;6.50;99.90;;;;;;4961760;29;20458;-90
2021/09/22 02:51:55;;;;;;;12.73;10.40;;;;;;;;;;4963631;29;20478;-91
2021/09/22 02:54:22;;;;;;;13.30;10.83;;;;;;;;;;4957580;29;20771;-92
2021/09/22 02:56:49;;;;;;;12.87;10.93;;;;;;;;;;4955755;29;20458;-91
2021/09/22 02:59:16;;;;;;;15.50;11.53;;;;;;;;;;4957656;29;20819;-90
2021/09/22 03:01:44;;;;;;;13.37;10.67;;;;;;;;;;4953733;29;20486;-91
2021/09/22 03:04:11;;;;;;;14.43;11.30;;;;;;;;;;4957473;29;20447;-92
2021/09/22 03:06:39;;;;;;;14.47;11.70;;;;;;;;;;4954228;29;20439;-90
2021/09/22 03:09:07;;;;;;;14.47;11.10;;;;;;;;;;4957183;29;20467;-91
2021/09/22 03:11:34;;;;;;;15.97;11.90;;;;;;;;;;4954340;29;20447;-91
2021/09/22 03:14:01;;;;;;;15.07;11.40;;;;;;;;;;4954310;29;20436;-91
2021/09/22 03:16:30;;;;;;;14.00;11.20;;;;;;;;;;4956111;28;20467;-92
2021/09/22 03:18:58;;;;;;;17.40;12.73;;;;;;;;;;4955112;29;20495;-90
2021/09/22 03:21:25;;;;;;;14.77;10.63;;;;;;;;;;4957127;29;20976;-90
2021/09/22 03:23:53;;;;;;;17.17;10.40;;;6.40;99.90;;;;;;4954089;29;20447;-91
2021/09/22 03:26:20;;;;;;;15.80;11.70;;;;;;;;;;4953864;29;20435;-91
2021/09/22 03:28:47;;;;;;;16.93;11.80;;;;;;;;;;4953812;29;20482;-90
2021/09/22 03:31:15;;;;;;;16.40;12.67;;;;;;;;;;4955510;28;20903;-89
2021/09/22 03:33:42;;;;;;;15.17;10.93;;;;;;;;;;4956744;29;20439;-90
2021/09/22 03:36:09;;;;;;;19.43;12.13;;;;;;;;;;4956364;29;20443;-90
2021/09/22 03:38:36;;;;;;;18.03;10.67;;;;;;;;;;4953685;29;20487;-92
2021/09/22 03:41:05;;;;;;;15.93;11.87;;;;;;;;;;4953845;29;20448;-91
2021/09/22 03:43:32;;;;;;;15.63;10.67;;;;;;;;;;4956682;29;20451;-92
2021/09/22 03:46:00;;;;;;;13.80;10.50;;;;;;;;;;4953519;29;20506;-92
2021/09/22 03:48:27;;;;;;;11.90;10.47;;;;;;;;;;4955630;29;20465;-92
2021/09/22 03:50:54;;;;;;;16.57;12.27;;;;;;;;;;4956332;29;20455;-90
2021/09/22 03:53:22;;;;;;;12.90;10.20;;;;;;;;;;4956335;29;20446;-90
2021/09/22 03:55:49;;;;;;;16.13;11.33;;;;;;;;;;4953826;29;20455;-90
2021/09/22 03:58:18;;;;;;;16.53;11.60;;;6.30;99.90;;;;;;4956009;29;20498;-90
2021/09/22 04:00:45;;;;;;;17.67;12.77;;;;;;;;;;4956576;28;20533;-90
2021/09/22 04:03:13;;;;;;;15.10;11.90;;;;;;;;;;4952199;29;20459;-90
2021/09/22 04:05:40;;;;;;;16.80;12.07;;;;;;;;;;4954538;29;20466;-90
2021/09/22 04:08:07;;;;;;;15.07;11.93;;;;;;;;;;4956263;29;20494;-92
2021/09/22 04:10:34;;;;;;;17.70;12.17;;;;;;;;;;4950440;29;20451;-92
2021/09/22 04:13:01;;;;;;;17.47;12.43;;;;;;;;;;4956004;29;20447;-91
2021/09/22 04:15:30;;;;;;;14.90;11.53;;;6.20;99.90;;;;;;4955880;29;20809;-91
2021/09/22 04:17:57;;;;;;;17.67;11.93;;;;;;;;;;4950953;29;20483;-90
2021/09/22 04:20:24;;;;;;;15.47;11.67;;;;;;;;;;4965018;29;20474;-91
2021/09/22 04:22:51;;;;;;;14.13;11.10;;;;;;;;;;4957502;29;20459;-92
2021/09/22 04:25:19;;;;;;;18.47;12.37;;;;;;;;;;4952705;29;20990;-90
2021/09/22 04:27:46;;;;;;;16.00;11.30;;;;;;;;;;4956234;29;20482;-91
2021/09/22 04:30:13;;;;;;;15.83;11.43;;;;;;;;;;4955319;29;20463;-92
2021/09/22 04:32:42;;;;;;;13.70;11.37;;;;;;;;;;4952526;29;20435;-90
2021/09/22 04:35:09;;;;;;;20.60;12.73;;;6.00;99.90;;;;;;4955721;29;20462;-91
2021/09/22 04:37:39;;;;;;;17.33;12.20;;;;;;;;;;4952720;29;20487;-90
2021/09/22 04:40:10;;;;;;;15.67;11.73;;;6.30;99.90;;;;;;4955628;29;20506;-90
2021/09/22 04:42:37;;;;;;;14.33;11.40;;;;;;;;;;4955269;28;20535;-91
2021/09/22 04:45:05;;;;;;;16.73;12.43;;;5.90;99.90;;;;;;4955463;29;20810;-90
2021/09/22 04:47:32;;;;;;;24.47;13.83;;;;;;;;;;4953749;29;20447;-91
2021/09/22 04:50:02;;;;;;;17.87;12.50;;;5.90;99.90;;;;;;4952038;29;20455;-92
2021/09/22 04:52:29;;;;;;;21.80;13.43;;;;;;;;;;4955272;29;20935;-92
2021/09/22 04:54:56;;;;;;;17.70;12.23;;;;;;;;;;4952903;29;20455;-91
2021/09/22 04:57:23;;;;;;;21.10;11.50;;;;;;;;;;4955408;29;20918;-90
2021/09/22 04:59:51;;;;;;;17.30;11.70;;;;;;;;;;4952965;29;20923;-89
2021/09/22 05:02:18;;;;;;;13.53;11.03;;;;;;;;;;4954986;29;20455;-92
2021/09/22 05:04:45;;;;;;;16.23;11.90;;;;;;;;;;4955669;29;20439;-91
2021/09/22 05:07:14;;;;;;;17.17;12.50;;;;;;;;;;4955555;29;20446;-91
2021/09/22 05:09:41;;;;;;;16.97;11.67;;;;;;;;;;4955499;29;20498;-90
2021/09/22 05:12:08;;;;;;;17.03;12.10;;;;;;;;;;4955367;29;20919;-91
2021/09/22 05:14:35;;;;;;;16.87;12.17;;;;;;;;;;4955436;29;21034;-90
2021/09/22 05:17:02;;;;;;;17.07;12.17;;;;;;;;;;4955039;29;20438;-91
2021/09/22 05:19:29;;;;;;;17.90;12.40;;;;;;;;;;4953613;29;20459;-90
2021/09/22 05:21:57;;;;;;;17.90;12.40;;;;;;;;;;4953668;29;20455;-89
2021/09/22 05:24:25;;;;;;;20.90;13.00;;;6.10;99.90;;;;;;4955555;29;20446;-91
2021/09/22 05:26:52;;;;;;;18.63;13.57;;;;;;;;;;4950440;29;20486;-91
2021/09/22 05:29:20;;;;;;;16.27;12.37;;;;;;;;;;4954973;29;20487;-91
2021/09/22 05:31:48;;;;;;;20.63;11.90;;;;;;;;;;4951891;29;20455;-91
2021/09/22 05:34:15;;;;;;;15.77;12.20;;;;;;;;;;4955572;29;20450;-89
2021/09/22 05:36:43;;;;;;;16.87;11.80;;;;;;;;;;4955711;29;20447;-90
2021/09/22 05:39:10;;;;;;;16.73;11.93;;;;;;;;;;4953514;29;20459;-92
2021/09/22 05:41:40;;;;;;;19.07;12.97;;;;;;;;;;4955002;29;20452;-90
2021/09/22 05:44:07;;;;;;;18.83;13.47;;;;;;;;;;4952177;29;20479;-91
2021/09/22 05:46:36;;;;;;;17.40;12.20;;;;;;;;;;4954579;29;20455;-91
2021/09/22 05:49:03;;;;;;;19.83;12.27;;;;;;;;;;4960921;29;20494;-90
2021/09/22 05:51:30;;;;;;;16.57;11.90;;;;;;;;;;4954414;29;20506;-91
2021/09/22 05:53:57;;;;;;;15.37;11.20;;;;;;;;;;4955909;28;20951;-91
2021/09/22 05:56:24;;;;;;;16.70;12.67;;;;;;;;;;4957522;29;20463;-90
2021/09/22 05:58:53;;;;;;;17.60;12.77;;;;;;;;;;4958577;29;20440;-89
2021/09/22 06:01:20;;;;;;;20.03;12.13;;;;;;;;;;4957067;29;20447;-89
2021/09/22 06:03:47;;;;;;;16.73;13.50;;;;;;;;;;4958173;29;20447;-91
2021/09/22 06:06:14;;;;;;;18.33;12.07;;;;;;;;;;4958510;29;20450;-90
2021/09/22 06:08:41;;;;;;;13.27;10.83;;;;;;;;;;4955223;29;20569;-91
2021/09/22 06:11:08;;;;;;;15.67;12.00;;;;;;;;;;4958902;29;20447;-90
2021/09/22 06:13:36;;;;;;;13.90;12.30;;;;;;;;;;4960341;29;20459;-90
2021/09/22 06:16:04;;;;;;;16.73;12.27;;;8.70;99.90;;;;;;4960329;29;20451;-90
2021/09/22 06:18:34;;;;;;;15.10;12.30;;;;;;;;;;4960852;29;20451;-92
2021/09/22 06:21:04;;;;;;;17.53;14.27;;;;;;;;;;4960020;29;20443;-91
2021/09/22 06:23:31;;;;;;;14.43;11.90;;;;;;;;;;4960584;29;20451;-91
2021/09/22 06:25:58;;;;;;;18.97;13.57;;;;;;;;;;4960368;29;20490;-91
2021/09/22 06:28:26;;;;;;;17.07;14.07;;;;;;;;;;4960835;29;20482;-91
2021/09/22 06:30:53;;;;;;;19.60;14.10;;;;;;;;;;4954038;29;20465;-91
2021/09/22 06:33:21;;;;;;;18.10;14.23;;;10.60;99.90;;;;;;4957140;29;20839;-91
2021/09/22 06:35:48;;;;;;;22.37;13.80;;;;;;;;;;4953534;29;20455;-91
2021/09/22 06:38:16;;;;;;;19.60;13.80;;;;;;;;;;4957945;29;20817;-91
2021/09/22 06:40:45;;;;;;;20.80;15.17;;;;;;;;;;4978420;28;20453;-95
2021/09/22 06:43:17;;;;;;;22.50;15.10;;;;;;;;;;4974013;29;20453;-93
2021/09/22 06:45:46;;;;;;;19.33;15.17;;;;;;;;;;4969102;29;20543;-93
2021/09/22 06:48:20;;;;;;;16.93;13.80;;;;;;;;;;4968485;29;20505;-95
2021/09/22 06:50:49;;;;;;;20.10;15.50;;;12.30;99.90;;;;;;4966849;29;20469;-92
2021/09/22 06:53:20;;;;;;;19.30;15.67;;;;;;;;;;4963600;29;20462;-93
2021/09/22 06:55:47;;;;;;;20.40;15.10;;;;;;;;;;4966051;29;20463;-92
2021/09/22 06:58:15;;;;;;;18.07;14.53;;;;;;;;;;4961983;29;20458;-94
2021/09/22 07:00:44;;;;;;;19.33;15.73;;;;;;;;;;4967385;29;20455;-93
2021/09/22 07:03:14;;;;;;;21.30;16.00;;;;;;;;;;4965851;29;20573;-94
2021/09/22 07:05:42;;;;;;;18.93;14.77;;;;;;;;;;4961456;28;20451;-92
2021/09/22 07:08:11;;;;;;;17.63;13.87;;;;;;;;;;4959694;29;20463;-92
2021/09/22 07:10:38;;;;;;;18.17;15.43;;;;;;;;;;4961631;29;20495;-90
2021/09/22 07:13:06;;;;;;;22.93;15.30;;;;;;;;;;4960104;29;20451;-93
2021/09/22 07:15:33;;;;;;;21.03;15.10;;;;;;;;;;4960902;29;20478;-90
2021/09/22 07:18:00;;;;;;;24.50;14.73;;;;;;;;;;4967207;28;20455;-92
2021/09/22 07:20:27;;;;;;;20.93;14.97;;;;;;;;;;4981397;28;20476;-90
2021/09/22 07:22:55;;;;;;;17.67;15.27;;;14.00;99.90;;;;;;4977023;28;20486;-91
2021/09/22 07:25:23;;;;;;;18.80;14.70;;;13.80;99.90;;;;;;4970572;28;20451;-91
2021/09/22 07:27:50;;;;;;;20.53;14.97;;;;;;;;;;4976315;28;20446;-92
2021/09/22 07:30:17;;;;;;;33.93;15.30;;;;;;;;;;4976074;28;20486;-93
2021/09/22 07:32:48;;;;;;;29.73;15.93;;;14.60;99.90;;;;;;4975283;28;20461;-91
2021/09/22 07:35:16;;;;;;;22.40;15.03;;;;;;;;;;4975860;28;20451;-91
2021/09/22 07:37:43;;;;;;;19.33;14.87;;;;;;;;;;4974740;28;20568;-89
2021/09/22 07:40:11;;;;;;;16.00;14.30;;;14.80;99.90;;;;;;4971772;28;20469;-90
2021/09/22 07:42:40;;;;;;;17.80;15.60;;;15.00;99.90;;;;;;4972434;28;20465;-92
2021/09/22 07:45:09;;;;;;;23.87;14.53;;;15.30;99.90;;;;;;4975730;28;20450;-90
2021/09/22 07:47:36;;;;;;;15.37;13.83;;;;;;;;;;4970417;28;20462;-92
2021/09/22 07:50:03;;;;;;;16.97;13.93;;;;;;;;;;4975277;28;20485;-90
2021/09/22 07:52:30;;;;;;;19.60;14.50;;;;;;;;;;4974996;28;20478;-90
2021/09/22 07:54:59;;;;;;;17.10;15.30;;;;;;;;;;4975337;28;20520;-90
2021/09/22 07:57:26;;;;;;;16.40;13.97;;;;;;;;;;4975186;28;20458;-90
2021/09/22 07:59:55;;;;;;;16.60;14.60;;;15.80;99.90;;;;;;4975877;28;20450;-90
2021/09/22 08:02:22;;;;;;;17.90;14.83;;;;;;;;;;4974494;28;20442;-91
2021/09/22 08:04:50;;;;;;;16.20;14.60;;;;;;;;;;4994251;28;20456;-90
2021/09/22 08:07:18;;;;;;;18.03;14.43;;;;;;;;;;4994793;28;20464;-91
2021/09/22 08:09:45;;;;;;;17.27;13.77;;;;;;;;;;4994208;28;20473;-92
2021/09/22 08:12:12;;;;;;;15.60;13.93;;;;;;;;;;4974916;28;20443;-92
2021/09/22 08:14:39;;;;;;;14.50;13.00;;;;;;;;;;4975680;28;20442;-92
2021/09/22 08:17:10;;;;;;;14.23;12.73;;;17.30;99.90;;;;;;4973791;28;20480;-91
2021/09/22 08:19:38;;;;;;;14.57;13.17;;;;;;;;;;4968756;28;20466;-91
2021/09/22 08:22:05;;;;;;;17.40;13.20;;;17.70;99.90;;;;;;4974787;28;20452;-92
2021/09/22 08:24:33;;;;;;;16.90;12.87;;;;;;;;;;4972505;28;20457;-94
2021/09/22 08:27:00;;;;;;;15.80;12.13;;;;;;;;;;4975037;28;20470;-91
2021/09/22 08:29:27;;;;;;;15.00;13.10;;;;;;;;;;4974829;28;20493;-91
2021/09/22 08:31:54;;;;;;;15.50;13.93;;;;;;;;;;4974181;28;20843;-92
2021/09/22 08:34:23;;;;;;;13.80;12.50;;;;;;;;;;4975380;28;20469;-93
2021/09/22 08:36:51;;;;;;;18.27;12.70;;;;;;;;;;4971089;28;20529;-92
2021/09/22 08:39:19;;;;;;;14.20;12.30;;;;;;;;;;4975122;28;20446;-91
2021/09/22 08:41:48;;;;;;;15.30;11.63;;;16.60;99.90;;;;;;4981548;28;20483;-92
2021/09/22 08:44:15;;;;;;;16.33;11.90;;;;;;;;;;4993980;28;20469;-90
2021/09/22 08:46:44;;;;;;;14.47;11.80;;;17.30;99.90;;;;;;5002217;28;20453;-91
2021/09/22 08:49:11;;;;;;;13.37;10.53;;;;;;;;;;4995990;28;21003;-93
2021/09/22 08:51:40;;;;;;;11.53;10.50;;;;;;;;;;4980063;28;20497;-90
2021/09/22 08:54:07;;;;;;;13.03;11.33;;;;;;;;;;4974795;28;20461;-92
2021/09/22 08:56:37;;;;;;;12.13;11.03;;;17.80;98.80;;;;;;4972150;28;20468;-91
2021/09/22 08:59:05;;;;;;;10.70;9.70;;;17.40;97.10;;;;;;4978064;28;20521;-91
2021/09/22 09:01:44;;;;;;;10.80;9.50;;;;;;;;;;4977004;28;20516;-94
2021/09/22 09:04:15;;;;;;;11.30;10.30;;;18.10;96.70;;;;;;4975449;28;20454;-93
2021/09/22 09:06:44;;;;;;;12.07;9.90;;;18.60;96.00;;;;;;4970322;28;20473;-92
2021/09/22 09:09:12;;;;;;;10.97;10.00;;;19.00;95.20;;;;;;4974708;28;20481;-91
2021/09/22 09:11:44;;;;;;;12.57;10.17;;;19.30;96.00;;;;;;4974953;28;20462;-92
2021/09/22 09:14:14;;;;;;;11.07;9.93;;;19.90;93.00;;;;;;4974432;28;20458;-90
2021/09/22 09:16:43;;;;;;;10.57;9.47;;;19.70;92.20;;;;;;4967492;28;20481;-89
2021/09/22 09:19:13;;;;;;;8.60;7.80;;;19.20;91.70;;;;;;4971480;28;20899;-91
2021/09/22 09:21:58;;;;;;;10.60;7.60;;;18.60;93.50;;;;;;4974013;28;20441;-90
2021/09/22 09:24:37;;;;;;;7.93;7.23;;;19.20;91.90;;;;;;4971787;28;20457;-93
2021/09/22 09:27:06;;;;;;;7.90;7.10;;;19.10;91.90;;;;;;4973125;28;20462;-91
2021/09/22 09:29:33;;;;;;;8.30;7.60;;;;;;;;;;4976436;28;20499;-90
2021/09/22 09:32:18;;;;;;;8.13;7.33;;;19.10;92.00;;;;;;4977685;28;20553;-93
2021/09/22 09:35:00;;;;;;;8.37;7.50;;;19.60;92.80;;;;;;4978356;28;20549;-94
2021/09/22 09:37:45;;;;;;;14.03;9.17;;;19.70;91.70;;;;;;4973254;28;20918;-93
2021/09/22 09:40:22;;;;;;;8.70;7.80;;;19.60;93.30;;;;;;4978251;28;20446;-92
2021/09/22 09:42:52;;;;;;;10.13;7.47;;;19.30;91.90;;;;;;4973349;28;20445;-92
2021/09/22 09:45:21;;;;;;;7.93;7.13;;;19.30;92.00;;;;;;4975543;28;20465;-91
2021/09/22 09:48:04;;;;;;;8.60;6.53;;;18.10;93.00;;;;;;4971622;28;20454;-89
2021/09/22 09:50:37;;;;;;;8.27;7.47;;;18.30;94.90;;;;;;4977798;28;20497;-91
2021/09/22 09:53:05;;;;;;;9.37;6.00;;;18.50;94.60;;;;;;4995691;28;20477;-89
2021/09/22 09:55:39;;;;;;;8.73;6.67;;;19.40;91.90;;;;;;4984067;28;20446;-88
2021/09/22 09:58:20;;;;;;;6.47;5.90;;;;;;;;;;4976805;28;20504;-88
2021/09/22 10:00:48;;;;;;;6.80;6.30;;;20.10;94.00;;;;;;4976998;28;20545;-89
2021/09/22 10:03:17;;;;;;;9.20;6.63;;;19.90;92.40;;;;;;4976430;28;20449;-94
2021/09/22 10:05:45;;;;;;;6.07;5.13;;;;;;;;;;4978155;28;20462;-92
2021/09/22 10:08:15;;;;;;;6.23;5.63;;;20.60;90.70;;;;;;4977083;28;20972;-90
2021/09/22 10:10:44;;;;;;;6.27;5.67;;;20.60;91.30;;;;;;4977557;28;20500;-93
2021/09/22 10:13:11;;;;;;;6.07;4.37;;;;;;;;;;4975091;28;20458;-90
2021/09/22 10:15:40;;;;;;;5.13;4.60;;;20.40;90.50;;;;;;4984822;28;20458;-92
2021/09/22 10:18:07;;;;;;;5.50;5.00;;;;;;;;;;4974771;28;20443;-90
2021/09/22 10:20:35;;;;;;;9.87;4.80;;;;;;;;;;4977193;28;20458;-92
2021/09/22 10:23:02;;;;;;;9.43;6.00;;;;;;;;;;4977323;28;20457;-94
2021/09/22 10:25:30;;;;;;;5.33;4.83;;;;;;;;;;4973930;28;21157;-91
2021/09/22 10:27:57;;;;;;;6.33;5.10;;;;;;;;;;4973641;28;20477;-91
2021/09/22 10:30:34;;;;;;;5.50;5.00;;;20.20;90.30;;;;;;4967417;28;20470;-91
2021/09/22 10:33:05;;;;;;;5.87;5.37;;;;;;;;;;4950639;29;20927;-92
2021/09/22 10:35:39;;;;;;;7.03;5.80;;;20.80;90.20;;;;;;4957523;29;20998;-92
2021/09/22 10:38:40;;;;;;;5.10;4.70;;;21.20;89.60;;;;;;4954868;29;20459;-90
2021/09/22 10:41:12;;;;;;;5.53;5.03;;;;;;;;;;4956779;28;20428;-92
2021/09/22 10:43:41;;;;;;;5.73;5.20;;;21.10;90.70;;;;;;4958417;29;20455;-93
2021/09/22 10:46:17;;;;;;;4.83;4.43;;;21.50;91.30;;;;;;4951368;29;20482;-93
2021/09/22 10:49:09;;;;;;;6.70;5.40;;;21.30;90.00;;;;;;4957450;29;20473;-93
2021/09/22 10:51:39;;;;;;;10.13;4.87;;;21.90;89.50;;;;;;4954312;29;20501;-92
2021/09/22 10:54:11;;;;;;;4.97;4.57;;;20.80;90.50;;;;;;4956743;28;20455;-91
2021/09/22 10:56:57;;;;;;;5.83;5.33;;;21.50;90.70;;;;;;4956663;29;20447;-90
2021/09/22 10:59:29;;;;;;;4.83;4.43;;;21.20;90.20;;;;;;4957142;29;20824;-88
2021/09/22 11:01:56;;;;;;;5.97;5.00;;;;;;;;;;4953823;29;20454;-91
2021/09/22 11:04:24;;;;;;;5.67;5.17;;;19.80;91.50;;;;;;4957919;28;20467;-90
2021/09/22 11:06:58;;;;;;;5.70;5.10;;;;;;;;;;4960409;29;20459;-90
2021/09/22 11:09:32;;;;;;;4.67;4.20;;;20.60;96.60;;;;;;4957232;29;20561;-92
2021/09/22 11:12:11;;;;;;;6.07;5.37;;;;;;;;;;4959064;29;20447;-91
2021/09/22 11:14:41;;;;;;;5.13;4.63;;;19.70;99.10;;;;;;4961214;29;20455;-91
2021/09/22 11:17:11;;;;;;;11.80;6.40;;;;;;;;;;4962652;29;20458;-92
2021/09/22 11:19:39;;;;;;;6.63;4.70;;;;;;;;;;4957444;29;20460;-93
2021/09/22 11:22:10;;;;;;;5.97;4.80;;;21.40;91.30;;;;;;4958052;29;20511;-89
2021/09/22 11:24:37;;;;;;;4.20;3.80;;;;;;;;;;4957877;29;20432;-94
2021/09/22 11:27:07;;;;;;;5.70;5.10;;;21.60;90.60;;;;;;4962161;29;20935;-94
2021/09/22 11:29:38;;;;;;;7.10;5.07;;;21.20;94.90;;;;;;4962708;29;20860;-93
2021/09/22 11:32:08;;;;;;;10.47;4.13;;;21.00;93.20;;;;;;4957144;29;20916;-90
2021/09/22 11:34:37;;;;;;;3.47;3.17;;;21.20;93.10;;;;;;4957369;29;20951;-93
2021/09/22 11:37:10;;;;;;;3.90;3.00;;;21.40;90.50;;;;;;4959180;29;20447;-90
2021/09/22 11:39:43;;;;;;;7.60;2.63;;;21.60;92.10;;;;;;4957452;29;20455;-90
2021/09/22 11:42:12;;;;;;;3.93;3.53;;;21.60;91.10;;;;;;4959627;29;20454;-89
2021/09/22 11:44:41;;;;;;;4.00;3.60;;;20.60;92.90;;;;;;4970733;29;20609;-93
2021/09/22 11:47:10;;;;;;;4.83;3.27;;;21.40;93.70;;;;;;4952505;29;20459;-94
2021/09/22 11:49:38;;;;;;;4.30;3.30;;;21.70;95.30;;;;;;4954109;29;20462;-89
2021/09/22 11:52:15;;;;;;;6.83;5.50;;;22.20;96.70;;;;;;4948947;28;20499;-93
2021/09/22 11:54:43;;;;;;;4.83;3.20;;;21.80;92.00;;;;;;4956850;29;20458;-89
2021/09/22 11:57:12;;;;;;;4.73;4.20;;;;;;;;;;4957516;29;20455;-91
2021/09/22 11:59:41;;;;;;;5.00;4.50;;;;;;;;;;4955901;29;20793;-89
2021/09/22 12:02:09;;;;;;;4.47;4.07;;;;;;;;;;4954193;28;20463;-89
2021/09/22 12:04:38;;;;;;;5.03;4.63;;;20.30;92.20;;;;;;4953068;29;20505;-89
2021/09/22 12:07:06;;;;;;;4.07;3.77;;;21.30;93.50;;;;;;4955606;29;20443;-88
2021/09/22 12:09:44;;;;;;;3.93;3.53;;;21.80;93.70;;;;;;4955868;29;20527;-88
2021/09/22 12:12:14;;;;;;;3.60;3.30;;;20.50;90.80;;;;;;4955791;29;20455;-87
2021/09/22 12:14:52;;;;;;;4.87;3.63;;;20.60;91.60;;;;;;4952397;29;20455;-91
2021/09/22 12:17:22;;;;;;;4.23;3.50;;;20.90;92.30;;;;;;4955666;29;20459;-89
2021/09/22 12:19:50;;;;;;;3.50;3.20;;;21.10;92.60;;;;;;4917918;29;20443;-89
2021/09/22 12:22:23;;;;;;;2.90;2.70;;;21.30;92.40;;;;;;4960192;29;20443;-90
2021/09/22 12:24:50;;;;;;;4.10;3.30;;;;;;;;;;4958751;29;20871;-89
2021/09/22 12:27:19;;;;;;;3.40;3.10;;;21.00;92.90;;;;;;4957078;29;20461;-89
2021/09/22 12:29:54;;;;;;;4.50;3.23;;;20.70;91.30;;;;;;4954033;29;20459;-88
2021/09/22 12:32:21;;;;;;;3.30;3.00;;;;;;;;;;4951498;29;20463;-89
2021/09/22 12:34:48;;;;;;;3.40;3.10;;;;;;;;;;4953184;29;20456;-89
2021/09/22 12:37:16;;;;;;;3.60;3.30;;;20.60;92.00;;;;;;4957908;29;20463;-89
2021/09/22 12:39:55;;;;;;;2.80;2.60;;;20.80;93.00;;;;;;4956057;29;20455;-88
2021/09/22 12:42:23;;;;;;;3.80;2.83;;;20.30;92.40;;;;;;4957407;29;20451;-87
2021/09/22 12:44:57;;;;;;;5.30;3.67;;;19.90;93.40;;;;;;4955861;29;20462;-89
2021/09/22 12:47:28;;;;;;;3.40;2.67;;;;;;;;;;4956450;29;20463;-91
2021/09/22 12:50:15;;;;;;;3.30;3.00;;;20.10;94.70;;;;;;4955896;29;20446;-89
2021/09/22 12:52:43;;;;;;;3.40;3.10;;;;;;;;;;4959939;29;20553;-92
2021/09/22 12:55:15;;;;;;;4.23;2.83;;;;;;;;;;4958001;29;20479;-95
2021/09/22 12:57:43;;;;;;;2.67;2.37;;;19.50;93.00;;;;;;4954459;29;20455;-92
2021/09/22 13:00:43;;;;;;;2.87;2.60;;;19.50;94.30;;;;;;4959266;29;20455;-92
2021/09/22 13:03:21;;;;;;;3.67;2.73;;;18.90;92.90;;;;;;4950989;28;20480;-89
2021/09/22 13:05:53;;;;;;;3.60;2.73;;;18.70;93.60;;;;;;4961694;29;20482;-92
2021/09/22 13:08:25;;;;;;;3.20;2.10;;;20.20;95.10;;;;;;4962688;29;20455;-91
2021/09/22 13:11:02;;;;;;;3.50;2.93;;;18.80;94.00;;;;;;4973129;29;20493;-89
2021/09/22 13:13:37;;;;;;;4.90;2.73;;;18.80;94.40;;;;;;4965662;29;20454;-89
2021/09/22 13:16:23;;;;;;;2.70;2.50;;;19.30;94.20;;;;;;4963820;29;20458;-89
2021/09/22 13:18:50;;;;;;;3.57;3.10;;;;;;;;;;4959396;29;20458;-90
2021/09/22 13:21:23;;;;;;;3.43;3.13;;;;;;;;;;4958307;29;20455;-90
2021/09/22 13:23:54;;;;;;;3.13;2.83;;;19.40;95.00;;;;;;4960105;28;20479;-90
2021/09/22 13:26:23;;;;;;;4.00;3.27;;;19.50;95.60;;;;;;4960766;29;20557;-90
2021/09/22 13:28:51;;;;;;;3.87;2.97;;;19.60;93.90;;;;;;4958552;29;20546;-91
2021/09/22 13:31:20;;;;;;;3.13;2.83;;;19.90;93.80;;;;;;4961418;29;20499;-89
2021/09/22 13:33:48;;;;;;;3.50;3.20;;;;;;;;;;4954618;28;20805;-89
2021/09/22 13:36:18;;;;;;;3.30;2.80;;;19.50;93.60;;;;;;4962808;29;20447;-91
2021/09/22 13:38:45;;;;;;;3.80;3.33;;;;;;;;;;4959691;29;20493;-91
2021/09/22 13:41:12;;;;;;;4.03;2.70;;;;;;;;;;4956417;29;20828;-91
2021/09/22 13:43:40;;;;;;;3.80;3.23;;;;;;;;;;4959591;29;20447;-90
2021/09/22 13:46:08;;;;;;;3.77;2.90;;;;;;;;;;4897814;29;20453;-91
2021/09/22 13:48:36;;;;;;;3.37;2.90;;;20.60;94.40;;;;;;4897654;29;20591;-90
2021/09/22 13:51:04;;;;;;;3.50;3.17;;;21.10;93.00;;;;;;4900333;29;20513;-93
2021/09/22 13:53:31;;;;;;;4.23;3.83;;;;;;;;;;4898705;29;20457;-92